Time;durP1;ratioP1;P1;durP2;ratioP2;P2;SDS_P1;SDS_P2;PMS_P1;PMS_P2;Temp;Humidity;BMP_temperature;BMP_pressure;BME280_temperature;BME280_humidity;BME280_pressure;Samples;Min_cycle;Max_cycle;Signal;HPM_P1;HPM_P2
2021/04/19 00:00:53;;;;;;;;;;;;;;;27.75;25.37;100823.25;5098598;28;857;-31
2021/04/19 00:03:19;;;;;;;;;;;;;;;27.75;25.00;100822.41;5079667;28;934;-32
2021/04/19 00:05:44;;;;;;;;;;;;;;;27.60;25.04;100823.19;5078584;28;1906;-37
2021/04/19 00:08:10;;;;;;;;;;;;;;;27.85;25.14;100816.72;5078560;28;803;-33
2021/04/19 00:10:35;;;;;;;;;;;;;;;27.72;24.96;100810.09;5078458;28;902;-37
2021/04/19 00:13:00;;;;;;;;;;;;;;;27.64;25.06;100818.28;5094500;28;1175;-37
2021/04/19 00:15:27;;;;;;;;;;;;;;;27.68;25.26;100800.69;5080011;28;1286;-30
2021/04/19 00:17:52;;;;;;;;;;;;;;;27.90;25.04;100797.22;5082828;28;1017;-32
2021/04/19 00:20:18;;;;;;;;;;;;;;;27.74;24.89;100791.00;5078457;28;818;-37
2021/04/19 00:22:44;;;;;;;;;;;;;;;27.64;25.06;100793.94;5077733;28;796;-30
2021/04/19 00:25:09;;;;;;;;;;;;;;;27.78;25.02;100791.47;5078292;28;1913;-37
2021/04/19 00:27:35;;;;;;;;;;;;;;;27.90;24.47;100779.16;5078267;28;719;-36
2021/04/19 00:30:00;;;;;;;;;;;;;;;27.75;25.29;100781.84;5077894;28;828;-30
2021/04/19 00:32:25;;;;;;;;;;;;;;;27.58;25.40;100795.50;5077058;28;1009;-29
2021/04/19 00:34:51;;;;;;;;;;;;;;;27.92;25.04;100792.47;5077981;28;842;-31
2021/04/19 00:37:16;;;;;;;;;;;;;;;27.90;24.90;100789.97;5078160;28;803;-30
2021/04/19 00:39:42;;;;;;;;;;;;;;;27.69;25.42;100791.56;5078129;28;770;-32
2021/04/19 00:42:07;;;;;;;;;;;;;;;27.70;25.15;100790.53;5077702;28;779;-37
2021/04/19 00:44:32;;;;;;;;;;;;;;;27.98;25.02;100795.25;5076485;28;1972;-32
2021/04/19 00:46:58;;;;;;;;;;;;;;;27.86;24.69;100785.97;5090227;28;1710;-37
2021/04/19 00:49:24;;;;;;;;;;;;;;;27.66;25.52;100786.47;5097829;28;771;-32
2021/04/19 00:51:50;;;;;;;;;;;;;;;27.74;25.62;100782.88;5098364;28;764;-37
2021/04/19 00:54:15;;;;;;;;;;;;;;;28.06;24.80;100777.28;5098207;28;802;-37
2021/04/19 00:56:40;;;;;;;;;;;;;;;27.94;24.72;100776.91;5079691;28;751;-32
2021/04/19 00:59:06;;;;;;;;;;;;;;;27.75;25.31;100782.69;5097894;28;788;-33
2021/04/19 01:01:33;;;;;;;;;;;;;;;27.84;25.18;100780.72;5093613;28;994;-31
2021/04/19 01:03:58;;;;;;;;;;;;;;;28.01;24.71;100782.41;5076908;28;841;-30
2021/04/19 01:06:24;;;;;;;;;;;;;;;27.93;24.81;100781.47;5077429;28;1893;-37
2021/04/19 01:08:49;;;;;;;;;;;;;;;27.70;25.04;100787.81;5077503;28;775;-30
2021/04/19 01:11:14;;;;;;;;;;;;;;;27.95;24.71;100783.97;5078454;28;1095;-30
2021/04/19 01:13:40;;;;;;;;;;;;;;;28.02;24.76;100776.81;5097620;28;799;-38
2021/04/19 01:16:05;;;;;;;;;;;;;;;27.86;25.18;100780.56;5096750;28;1253;-30
2021/04/19 01:18:30;;;;;;;;;;;;;;;27.53;24.90;100786.31;5077347;28;962;-29
2021/04/19 01:20:55;;;;;;;;;;;;;;;27.53;24.70;100786.31;5077429;28;813;-27
2021/04/19 01:23:21;;;;;;;;;;;;;;;27.49;24.37;100792.03;5076892;28;882;-28
2021/04/19 01:25:46;;;;;;;;;;;;;;;27.46;24.62;100799.72;5076952;28;1985;-31
2021/04/19 01:28:11;;;;;;;;;;;;;;;27.54;24.52;100802.31;5077454;28;769;-28
2021/04/19 01:30:37;;;;;;;;;;;;;;;27.61;23.70;100802.44;5076991;28;883;-31
2021/04/19 01:33:03;;;;;;;;;;;;;;;27.59;23.81;100809.88;5076460;28;997;-31
2021/04/19 01:35:28;;;;;;;;;;;;;;;27.50;24.50;100809.09;5076662;28;817;-28
2021/04/19 01:37:56;;;;;;;;;;;;;;;27.47;24.02;100815.72;5076453;28;1124;-28
2021/04/19 01:40:21;;;;;;;;;;;;;;;27.61;24.02;100815.94;5075112;28;887;-29
2021/04/19 01:42:46;;;;;;;;;;;;;;;27.54;23.74;100817.69;5076562;28;794;-29
2021/04/19 01:45:12;;;;;;;;;;;;;;;27.42;24.12;100806.50;5076709;28;1909;-29
2021/04/19 01:47:37;;;;;;;;;;;;;;;27.51;24.04;100808.06;5094661;28;1657;-29
2021/04/19 01:50:10;;;;;;;;;;;;;;;27.55;23.68;100813.94;5096791;28;487;-28
2021/04/19 01:52:35;;;;;;;;;;;;;;;27.45;24.12;100812.38;5097319;28;716;-30
2021/04/19 01:55:00;;;;;;;;;;;;;;;27.38;24.31;100812.25;5096665;28;894;-31
2021/04/19 01:57:28;;;;;;;;;;;;;;;27.44;23.75;100812.56;5096585;28;894;-29
2021/04/19 01:59:53;;;;;;;;;;;;;;;27.51;23.78;100810.78;5095218;28;1053;-28
2021/04/19 02:02:20;;;;;;;;;;;;;;;27.43;23.72;100811.72;5078499;28;935;-30
2021/04/19 02:05:01;;;;;;;;;;;;;;;27.32;24.26;100802.19;5079001;28;1902;-30
2021/04/19 02:07:30;;;;;;;;;;;;;;;27.48;23.61;100797.63;5079024;28;799;-28
2021/04/19 02:10:05;;;;;;;;;;;;;;;27.22;24.00;100743.03;5096918;28;748;-28
2021/04/19 02:12:42;;;;;;;;;;;;;;;27.48;24.37;100786.84;5078448;28;1132;-32
2021/04/19 02:15:07;;;;;;;;;;;;;;;27.39;24.06;100788.78;5078595;28;1308;-28
2021/04/19 02:17:51;;;;;;;;;;;;;;;27.50;23.85;100784.78;5083659;28;1017;-29
2021/04/19 02:20:19;;;;;;;;;;;;;;;27.52;23.62;100790.84;5076398;28;779;-30
2021/04/19 02:22:45;;;;;;;;;;;;;;;27.46;23.84;100784.31;5076321;28;784;-31
2021/04/19 02:25:15;;;;;;;;;;;;;;;27.33;23.91;100781.41;5074873;28;2001;-30
2021/04/19 02:27:43;;;;;;;;;;;;;;;27.53;23.57;100780.91;5076012;28;835;-29
2021/04/19 02:30:09;;;;;;;;;;;;;;;27.48;23.73;100786.84;5076371;28;909;-30
2021/04/19 02:32:35;;;;;;;;;;;;;;;27.32;24.08;100779.75;5076362;28;997;-28
2021/04/19 02:35:03;;;;;;;;;;;;;;;27.28;24.49;100773.88;5076296;28;768;-28
2021/04/19 02:37:29;;;;;;;;;;;;;;;27.48;23.70;100776.88;5075520;28;806;-31
2021/04/19 02:39:54;;;;;;;;;;;;;;;27.56;23.60;100772.41;5076326;28;835;-30
2021/04/19 02:42:19;;;;;;;;;;;;;;;27.50;23.62;100768.59;5074775;28;1636;-29
2021/04/19 02:44:45;;;;;;;;;;;;;;;27.35;24.09;100766.72;5076256;28;1970;-30
2021/04/19 02:47:10;;;;;;;;;;;;;;;27.48;23.54;100774.16;5074359;28;1692;-29
2021/04/19 02:49:36;;;;;;;;;;;;;;;27.49;23.74;100772.31;5076234;28;829;-37
2021/04/19 02:52:03;;;;;;;;;;;;;;;27.40;23.98;100771.56;5074233;28;1081;-28
2021/04/19 02:54:28;;;;;;;;;;;;;;;27.35;23.81;100773.97;5076390;28;828;-29
2021/04/19 02:56:54;;;;;;;;;;;;;;;27.51;23.36;100763.00;5078531;28;836;-30
2021/04/19 02:59:19;;;;;;;;;;;;;;;27.45;23.32;100763.75;5078060;28;826;-28
2021/04/19 03:01:45;;;;;;;;;;;;;;;26.82;21.73;100762.09;5079729;28;939;-35
2021/04/19 03:04:12;;;;;;;;;;;;;;;26.18;23.01;100755.88;5079099;28;758;-33
2021/04/19 03:06:38;;;;;;;;;;;;;;;25.48;22.48;100756.44;5079523;28;1969;-36
2021/04/19 03:09:03;;;;;;;;;;;;;;;25.04;22.16;100763.91;5079681;28;780;-33
2021/04/19 03:11:33;;;;;;;;;;;;;;;24.91;22.42;100761.72;5081697;28;1194;-34
2021/04/19 03:13:59;;;;;;;;;;;;;;;24.55;22.47;100762.84;5081738;28;844;-33
2021/04/19 03:16:25;;;;;;;;;;;;;;;24.64;22.47;100765.53;5078003;28;1306;-31
2021/04/19 03:18:51;;;;;;;;;;;;;;;24.32;22.90;100758.06;5079213;28;897;-33
2021/04/19 03:21:18;;;;;;;;;;;;;;;24.06;23.38;100763.47;5079476;28;779;-36
2021/04/19 03:23:50;;;;;;;;;;;;;;;23.96;23.60;100760.94;5077546;28;868;-31
2021/04/19 03:26:16;;;;;;;;;;;;;;;24.03;23.67;100753.06;5078427;28;1906;-38
2021/04/19 03:28:42;;;;;;;;;;;;;;;23.71;23.94;100758.13;5078239;28;959;-35
2021/04/19 03:31:08;;;;;;;;;;;;;;;23.64;24.46;100751.72;5077506;28;955;-33
2021/04/19 03:33:33;;;;;;;;;;;;;;;23.50;24.76;100754.00;5079163;28;938;-28
2021/04/19 03:35:59;;;;;;;;;;;;;;;23.40;24.73;100753.25;5079373;28;798;-37
2021/04/19 03:38:26;;;;;;;;;;;;;;;23.24;25.25;100755.63;5078127;28;743;-32
2021/04/19 03:40:51;;;;;;;;;;;;;;;23.43;25.28;100750.25;5078062;28;822;-36
2021/04/19 03:43:17;;;;;;;;;;;;;;;23.44;25.06;100754.63;5077579;28;1087;-32
2021/04/19 03:45:42;;;;;;;;;;;;;;;22.94;25.38;100757.72;5080814;28;1901;-35
2021/04/19 03:48:08;;;;;;;;;;;;;;;19.89;29.65;100752.78;5098087;28;950;-36
2021/04/19 03:50:37;;;;;;;;;;;;;;;20.66;28.87;100758.50;5099122;28;732;-36
2021/04/19 03:53:02;;;;;;;;;;;;;;;21.45;27.68;100763.00;5080961;28;995;-37
2021/04/19 03:55:28;;;;;;;;;;;;;;;22.17;27.34;100761.63;5098120;28;831;-35
2021/04/19 03:57:53;;;;;;;;;;;;;;;22.51;26.72;100758.31;5080393;28;826;-37
2021/04/19 04:00:19;;;;;;;;;;;;;;;22.86;25.90;100771.06;5080929;28;736;-41
2021/04/19 04:02:45;;;;;;;;;;;;;;;23.18;25.85;100775.03;5084290;28;946;-36
2021/04/19 04:05:10;;;;;;;;;;;;;;;23.57;25.52;100779.19;5077260;28;1905;-35
2021/04/19 04:07:36;;;;;;;;;;;;;;;23.78;25.20;100774.44;5076424;28;811;-36
2021/04/19 04:10:02;;;;;;;;;;;;;;;23.87;25.48;100784.25;5078413;28;882;-39
2021/04/19 04:12:27;;;;;;;;;;;;;;;23.80;25.41;100783.19;5089661;28;1115;-38
2021/04/19 04:14:53;;;;;;;;;;;;;;;23.98;25.25;100788.47;5098296;28;1456;-39
2021/04/19 04:17:18;;;;;;;;;;;;;;;23.94;25.41;100787.97;5087412;28;883;-37
2021/04/19 04:19:44;;;;;;;;;;;;;;;24.12;25.72;100799.63;5077524;28;820;-38
2021/04/19 04:22:09;;;;;;;;;;;;;;;24.41;26.06;100801.09;5077989;28;799;-38
2021/04/19 04:24:35;;;;;;;;;;;;;;;24.80;25.73;100803.22;5077988;28;1918;-36
2021/04/19 04:27:00;;;;;;;;;;;;;;;24.99;25.83;100798.53;5078294;28;823;-36
2021/04/19 04:29:26;;;;;;;;;;;;;;;25.15;25.69;100795.03;5078305;28;767;-35
2021/04/19 04:31:51;;;;;;;;;;;;;;;25.42;25.31;100800.22;5077440;28;1013;-40
2021/04/19 04:34:16;;;;;;;;;;;;;;;25.68;24.92;100808.13;5078106;28;863;-29
2021/04/19 04:36:41;;;;;;;;;;;;;;;25.58;25.13;100802.03;5078216;28;771;-32
2021/04/19 04:39:07;;;;;;;;;;;;;;;25.43;25.58;100794.66;5078129;28;763;-29
2021/04/19 04:41:32;;;;;;;;;;;;;;;25.83;25.02;100796.63;5077641;28;977;-37
2021/04/19 04:43:57;;;;;;;;;;;;;;;25.92;25.02;100789.38;5077990;28;826;-30
2021/04/19 04:46:52;;;;;;;;;;;;;;;26.16;24.87;100792.94;5078414;28;1980;-37
2021/04/19 04:49:24;;;;;;;;;;;;;;;26.02;25.05;100786.47;5080357;28;1610;-34
2021/04/19 04:51:49;;;;;;;;;;;;;;;25.89;25.52;100782.44;5098080;28;830;-36
2021/04/19 04:54:15;;;;;;;;;;;;;;;25.95;25.68;100780.94;5079238;28;839;-29
2021/04/19 04:56:41;;;;;;;;;;;;;;;26.15;25.34;100789.44;5098062;28;743;-29
2021/04/19 04:59:06;;;;;;;;;;;;;;;26.40;25.17;100785.81;5078724;28;1167;-39
2021/04/19 05:01:32;;;;;;;;;;;;;;;26.38;25.04;100785.13;5075890;28;959;-38
2021/04/19 05:03:57;;;;;;;;;;;;;;;26.09;25.54;100786.59;5076280;28;780;-39
2021/04/19 05:06:22;;;;;;;;;;;;;;;25.76;26.11;100791.09;5075874;28;1902;-32
2021/04/19 05:08:48;;;;;;;;;;;;;;;26.09;25.76;100789.28;5076230;28;751;-28
2021/04/19 05:11:14;;;;;;;;;;;;;;;26.44;25.35;100789.00;5078512;28;1147;-35
2021/04/19 05:13:39;;;;;;;;;;;;;;;26.29;25.40;100789.72;5097406;28;859;-33
2021/04/19 05:16:05;;;;;;;;;;;;;;;26.08;25.96;100784.91;5096908;28;1282;-33
2021/04/19 05:18:30;;;;;;;;;;;;;;;26.08;25.97;100785.75;5076641;28;931;-30
2021/04/19 05:20:55;;;;;;;;;;;;;;;26.43;25.65;100788.13;5076948;28;946;-38
2021/04/19 05:23:21;;;;;;;;;;;;;;;26.59;25.37;100791.75;5076920;28;721;-31
2021/04/19 05:25:46;;;;;;;;;;;;;;;26.19;25.76;100797.16;5076898;28;1918;-30
2021/04/19 05:28:12;;;;;;;;;;;;;;;25.97;26.42;100794.22;5077475;28;783;-31
2021/04/19 05:30:37;;;;;;;;;;;;;;;26.36;25.91;100781.78;5076851;28;815;-31
2021/04/19 05:33:03;;;;;;;;;;;;;;;26.61;25.46;100792.44;5076774;28;938;-33
2021/04/19 05:35:28;;;;;;;;;;;;;;;26.48;25.64;100790.28;5076808;28;782;-32
2021/04/19 05:37:53;;;;;;;;;;;;;;;26.22;25.91;100797.66;5077074;28;770;-29
2021/04/19 05:40:24;;;;;;;;;;;;;;;26.32;25.92;100792.06;5076151;28;775;-31
2021/04/19 05:42:49;;;;;;;;;;;;;;;26.65;25.55;100799.13;5076950;28;799;-31
2021/04/19 05:45:15;;;;;;;;;;;;;;;26.74;25.41;100789.13;5076852;28;1913;-31
2021/04/19 05:47:42;;;;;;;;;;;;;;;26.57;25.68;100785.69;5074807;28;1682;-27
2021/04/19 05:50:08;;;;;;;;;;;;;;;26.26;26.14;100780.09;5075446;28;839;-34
2021/04/19 05:52:34;;;;;;;;;;;;;;;26.36;26.17;100773.69;5076643;28;815;-32
2021/04/19 05:54:59;;;;;;;;;;;;;;;26.57;25.76;100773.06;5076685;28;811;-31
2021/04/19 05:57:43;;;;;;;;;;;;;;;26.88;25.59;100768.59;5076617;28;851;-30
2021/04/19 06:00:29;;;;;;;;;;;;;;;26.48;25.78;100763.31;5076206;28;875;-30
2021/04/19 06:03:27;;;;;;;;;;;;;;;26.33;26.06;100764.09;5065142;28;1226;-32
2021/04/19 06:06:11;;;;;;;;;;;;;;;26.54;25.92;100762.63;5053065;28;1972;-30
2021/04/19 06:08:50;;;;;;;;;;;;;;;26.84;25.69;100768.13;5076539;28;754;-31
2021/04/19 06:11:25;;;;;;;;;;;;;;;26.69;26.02;100760.00;5076394;28;1139;-36
2021/04/19 06:13:50;;;;;;;;;;;;;;;26.45;26.36;100751.03;5096997;28;744;-34
2021/04/19 06:16:16;;;;;;;;;;;;;;;26.76;25.74;100736.66;5094020;28;1311;-31
2021/04/19 06:18:42;;;;;;;;;;;;;;;27.00;25.39;100739.31;5076182;28;763;-39
2021/04/19 06:21:07;;;;;;;;;;;;;;;26.56;25.77;100738.16;5074722;28;1174;-38
2021/04/19 06:23:32;;;;;;;;;;;;;;;26.46;26.42;100739.22;5075173;28;784;-34
2021/04/19 06:25:58;;;;;;;;;;;;;;;26.51;26.17;100738.69;5074796;28;1957;-34
2021/04/19 06:28:23;;;;;;;;;;;;;;;26.22;26.70;100740.19;5076123;28;899;-32
2021/04/19 06:30:49;;;;;;;;;;;;;;;26.23;26.90;100733.78;5077881;28;763;-34
2021/04/19 06:33:15;;;;;;;;;;;;;;;26.24;26.85;100739.00;5079008;28;935;-31
2021/04/19 06:35:41;;;;;;;;;;;;;;;26.17;26.91;100741.56;5080761;28;781;-38
2021/04/19 06:38:06;;;;;;;;;;;;;;;26.08;27.27;100729.16;5080007;28;740;-33
2021/04/19 06:40:33;;;;;;;;;;;;;;;26.68;26.62;100727.78;5080363;28;815;-36
2021/04/19 06:42:58;;;;;;;;;;;;;;;26.71;26.42;100724.75;5079066;28;846;-39
2021/04/19 06:45:24;;;;;;;;;;;;;;;26.55;26.35;100731.06;5080475;28;1982;-32
2021/04/19 06:47:51;;;;;;;;;;;;;;;26.34;26.52;100729.88;5099124;28;1010;-34
2021/04/19 06:50:16;;;;;;;;;;;;;;;26.52;26.33;100708.88;5082330;28;1049;-37
2021/04/19 06:52:48;;;;;;;;;;;;;;;26.35;26.71;100721.63;5100110;28;772;-33
2021/04/19 06:55:14;;;;;;;;;;;;;;;26.27;26.96;100727.03;5100358;28;840;-29
2021/04/19 06:57:44;;;;;;;;;;;;;;;26.31;26.60;100722.13;5100310;28;811;-34
2021/04/19 07:00:09;;;;;;;;;;;;;;;26.40;26.69;100724.63;5100064;28;834;-35
2021/04/19 07:02:38;;;;;;;;;;;;;;;26.38;26.77;100712.31;5081420;28;963;-33
2021/04/19 07:05:04;;;;;;;;;;;;;;;26.29;26.89;100714.22;5099757;28;1984;-38
2021/04/19 07:07:31;;;;;;;;;;;;;;;26.28;26.82;100707.97;5099939;28;847;-29
2021/04/19 07:09:57;;;;;;;;;;;;;;;26.22;27.20;100716.78;5082038;28;841;-36
2021/04/19 07:12:23;;;;;;;;;;;;;;;26.42;26.80;100721.75;5088759;28;1135;-34
2021/04/19 07:14:48;;;;;;;;;;;;;;;26.44;27.03;100727.81;5061849;28;1072;-31
2021/04/19 07:17:14;;;;;;;;;;;;;;;26.42;26.85;100724.44;5079953;28;971;-30
2021/04/19 07:19:39;;;;;;;;;;;;;;;26.51;26.78;100717.09;5079510;28;716;-37
2021/04/19 07:22:05;;;;;;;;;;;;;;;26.68;26.50;100715.13;5077959;28;828;-30
2021/04/19 07:24:30;;;;;;;;;;;;;;;26.49;26.62;100714.59;5079533;28;865;-30
2021/04/19 07:26:57;;;;;;;;;;;;;;;26.27;27.10;100714.41;5078193;28;1902;-30
2021/04/19 07:29:22;;;;;;;;;;;;;;;26.22;27.18;100710.53;5078386;28;830;-29
2021/04/19 07:31:48;;;;;;;;;;;;;;;26.55;26.99;100707.66;5078959;28;950;-37
2021/04/19 07:34:17;;;;;;;;;;;;;;;26.53;26.65;100706.97;5078840;28;839;-32
2021/04/19 07:36:46;;;;;;;;;;;;;;;26.36;26.87;100685.53;5079252;28;886;-35
2021/04/19 07:39:15;;;;;;;;;;;;;;;26.39;27.03;100695.94;5078998;28;843;-35
2021/04/19 07:41:47;;;;;;;;;;;;;;;26.37;27.06;100698.00;5078516;28;764;-33
2021/04/19 07:44:31;;;;;;;;;;;;;;;26.42;27.17;100692.06;5079192;28;820;-30
2021/04/19 07:47:16;;;;;;;;;;;;;;;26.44;27.03;100681.94;5091230;28;1963;-32
2021/04/19 07:49:42;;;;;;;;;;;;;;;26.40;27.08;100692.25;5099060;28;772;-36
2021/04/19 07:52:08;;;;;;;;;;;;;;;26.41;27.10;100693.91;5080665;28;1360;-36
2021/04/19 07:54:33;;;;;;;;;;;;;;;26.24;27.55;100689.63;5099105;28;791;-35
2021/04/19 07:56:58;;;;;;;;;;;;;;;26.40;26.98;100686.84;5099402;28;1062;-30
2021/04/19 07:59:24;;;;;;;;;;;;;;;26.35;27.01;100693.78;5099189;28;779;-29
2021/04/19 08:01:56;;;;;;;;;;;;;;;26.31;27.33;100689.75;5091621;28;970;-25
2021/04/19 08:04:21;;;;;;;;;;;;;;;26.12;27.83;100689.19;5078730;28;884;-27
2021/04/19 08:06:46;;;;;;;;;;;;;;;26.49;26.85;100695.72;5077038;28;1902;-27
2021/04/19 08:09:11;;;;;;;;;;;;;;;26.56;26.77;100689.59;5078887;28;763;-35
2021/04/19 08:11:43;;;;;;;;;;;;;;;26.65;26.67;100688.50;5080722;28;1278;-33
2021/04/19 08:14:08;;;;;;;;;;;;;;;26.81;26.58;100682.13;5098820;28;896;-32
2021/04/19 08:16:34;;;;;;;;;;;;;;;26.74;26.82;100671.22;5093445;28;1398;-32
2021/04/19 08:19:00;;;;;;;;;;;;;;;26.60;26.86;100667.47;5078657;28;791;-34
2021/04/19 08:21:28;;;;;;;;;;;;;;;26.54;27.10;100670.91;5078618;28;752;-32
2021/04/19 08:23:53;;;;;;;;;;;;;;;26.74;26.65;100671.22;5078018;28;918;-30
2021/04/19 08:26:19;;;;;;;;;;;;;;;26.62;26.88;100670.84;5078421;28;1906;-34
2021/04/19 08:28:44;;;;;;;;;;;;;;;26.50;27.25;100672.28;5078247;28;1046;-34
2021/04/19 08:31:10;;;;;;;;;;;;;;;26.56;27.02;100670.72;5077837;28;1009;-32
2021/04/19 08:33:35;;;;;;;;;;;;;;;26.96;26.52;100674.06;5077857;28;851;-32
2021/04/19 08:36:00;;;;;;;;;;;;;;;26.68;26.50;100665.72;5076668;28;759;-35
2021/04/19 08:38:26;;;;;;;;;;;;;;;26.72;26.73;100665.19;5077686;28;1238;-41
2021/04/19 08:40:51;;;;;;;;;;;;;;;26.71;26.37;100668.91;5072742;28;1293;-31
2021/04/19 08:43:23;;;;;;;;;;;;;;;26.66;26.91;100674.00;5097946;28;870;-32
2021/04/19 08:45:49;;;;;;;;;;;;;;;26.80;26.77;100677.75;5088032;28;1906;-34
2021/04/19 08:48:14;;;;;;;;;;;;;;;26.72;26.73;100673.28;5077011;28;1150;-39
2021/04/19 08:50:40;;;;;;;;;;;;;;;26.69;26.32;100664.72;5077404;28;780;-34
2021/04/19 08:53:09;;;;;;;;;;;;;;;26.58;26.51;100660.56;5077102;28;874;-34
2021/04/19 08:55:35;;;;;;;;;;;;;;;26.43;26.76;100653.28;5077759;28;831;-36
2021/04/19 08:58:05;;;;;;;;;;;;;;;26.35;27.23;100661.44;5077592;28;887;-38
2021/04/19 09:00:30;;;;;;;;;;;;;;;26.48;27.02;100661.66;5077430;28;862;-37
2021/04/19 09:02:59;;;;;;;;;;;;;;;26.55;26.88;100669.03;5075406;28;962;-36
2021/04/19 09:05:24;;;;;;;;;;;;;;;26.56;26.81;100659.94;5077386;28;1963;-37
2021/04/19 09:07:50;;;;;;;;;;;;;;;26.35;27.30;100662.28;5077554;28;793;-34
2021/04/19 09:10:16;;;;;;;;;;;;;;;26.46;26.97;100652.09;5075779;28;1179;-36
2021/04/19 09:12:41;;;;;;;;;;;;;;;26.60;26.85;100656.69;5090957;28;1183;-35
2021/04/19 09:15:13;;;;;;;;;;;;;;;26.54;26.86;100652.03;5097411;28;1413;-31
2021/04/19 09:17:39;;;;;;;;;;;;;;;26.29;27.41;100652.19;5083473;28;1025;-36
2021/04/19 09:20:07;;;;;;;;;;;;;;;25.92;28.14;100652.72;5077563;28;771;-33
2021/04/19 09:22:33;;;;;;;;;;;;;;;26.71;26.82;100650.00;5076578;28;850;-29
2021/04/19 09:25:06;;;;;;;;;;;;;;;26.86;26.47;100639.25;5076746;28;1970;-28
2021/04/19 09:27:48;;;;;;;;;;;;;;;26.66;27.03;100647.00;5077254;28;791;-29
2021/04/19 09:30:26;;;;;;;;;;;;;;;26.78;26.63;100639.31;5077094;28;706;-32
2021/04/19 09:33:06;;;;;;;;;;;;;;;26.73;26.70;100634.47;5076472;28;974;-29
2021/04/19 09:38:06;;;;;;;;;;;;;;;26.72;26.94;100626.56;5076596;28;593;-29
2021/04/19 09:40:33;;;;;;;;;;;;;;;27.20;26.34;100630.81;5077050;28;755;-29
2021/04/19 09:43:08;;;;;;;;;;;;;;;26.98;26.45;100631.53;5075282;28;1241;-28
2021/04/19 09:45:44;;;;;;;;;;;;;;;26.87;26.54;100649.03;5078625;28;1911;-28
2021/04/19 09:48:27;;;;;;;;;;;;;;;26.59;27.25;100641.50;5096408;28;1021;-30
2021/04/19 09:51:05;;;;;;;;;;;;;;;26.90;26.47;100615.41;5096988;28;759;-29
2021/04/19 09:53:30;;;;;;;;;;;;;;;26.85;26.74;100610.59;5096948;28;762;-30
2021/04/19 09:55:56;;;;;;;;;;;;;;;27.02;26.64;100605.03;5096809;28;810;-26
2021/04/19 09:58:21;;;;;;;;;;;;;;;27.34;25.97;100610.25;5096797;28;847;-32
2021/04/19 10:00:53;;;;;;;;;;;;;;;27.04;26.61;100608.41;5096884;28;814;-30
2021/04/19 10:03:18;;;;;;;;;;;;;;;26.92;26.91;100588.25;5077466;28;954;-30
2021/04/19 10:05:44;;;;;;;;;;;;;;;26.85;26.78;100586.28;5075618;28;1894;-32
2021/04/19 10:08:09;;;;;;;;;;;;;;;27.18;26.38;100589.66;5076579;28;775;-35
2021/04/19 10:10:34;;;;;;;;;;;;;;;27.04;26.61;100596.75;5075424;28;835;-29
2021/04/19 10:12:59;;;;;;;;;;;;;;;27.11;26.58;100597.69;5092147;28;1202;-32
2021/04/19 10:15:25;;;;;;;;;;;;;;;27.21;26.52;100595.53;5096291;28;1307;-32
2021/04/19 10:17:50;;;;;;;;;;;;;;;26.82;24.40;100575.03;5081236;28;989;-30
2021/04/19 10:20:24;;;;;;;;;;;;;;;25.50;23.59;100557.81;5076266;28;829;-27
2021/04/19 10:23:04;;;;;;;;;;;;;;;23.49;25.08;100561.66;5076449;28;768;-31
2021/04/19 10:25:30;;;;;;;;;;;;;;;22.48;26.91;100554.06;5076423;28;1905;-28
2021/04/19 10:27:55;;;;;;;;;;;;;;;22.81;32.16;100557.00;5076503;28;809;-34
2021/04/19 10:30:20;;;;;;;;;;;;;;;24.24;30.59;100555.63;5076439;28;807;-28
2021/04/19 10:32:46;;;;;;;;;;;;;;;24.29;29.81;100559.47;5075367;28;946;-30
2021/04/19 10:35:30;;;;;;;;;;;;;;;24.55;28.70;100565.66;5076150;28;728;-29
2021/04/19 10:37:55;;;;;;;;;;;;;;;23.29;27.63;100561.09;5076080;28;883;-35
2021/04/19 10:40:24;;;;;;;;;;;;;;;22.38;27.26;100549.66;5076583;28;726;-36
2021/04/19 10:42:49;;;;;;;;;;;;;;;22.35;26.83;100554.47;5075613;28;846;-31
2021/04/19 10:45:15;;;;;;;;;;;;;;;22.85;26.50;100542.28;5076251;28;1951;-31
2021/04/19 10:47:40;;;;;;;;;;;;;;;22.96;26.33;100553.72;5093874;28;1641;-33
2021/04/19 10:50:06;;;;;;;;;;;;;;;24.34;25.31;100542.81;5095942;28;801;-33
2021/04/19 10:52:31;;;;;;;;;;;;;;;25.04;26.36;100535.13;5096154;28;778;-33
2021/04/19 10:54:56;;;;;;;;;;;;;;;25.53;26.04;100537.75;5096183;28;839;-31
2021/04/19 10:57:25;;;;;;;;;;;;;;;25.75;25.55;100538.00;5096010;28;857;-34
2021/04/19 10:59:54;;;;;;;;;;;;;;;25.85;25.38;100546.69;5096609;28;809;-32
2021/04/19 11:02:23;;;;;;;;;;;;;;;26.06;25.06;100514.72;5084386;28;934;-35
2021/04/19 11:04:48;;;;;;;;;;;;;;;26.24;24.99;100535.94;5075984;28;1906;-29
2021/04/19 11:07:27;;;;;;;;;;;;;;;26.40;24.95;100519.66;5075410;28;826;-33
2021/04/19 11:10:11;;;;;;;;;;;;;;;26.49;24.92;100519.56;5076000;28;791;-32
2021/04/19 11:12:36;;;;;;;;;;;;;;;26.44;25.23;100501.25;5080688;28;1213;-35
2021/04/19 11:15:08;;;;;;;;;;;;;;;26.35;25.29;100513.97;5075535;28;1137;-35
2021/04/19 11:17:34;;;;;;;;;;;;;;;26.37;25.56;100484.09;5078552;28;1157;-34
2021/04/19 11:19:59;;;;;;;;;;;;;;;26.46;25.52;100501.06;5079434;28;819;-32
2021/04/19 11:22:24;;;;;;;;;;;;;;;26.62;25.20;100487.38;5078750;28;796;-35
2021/04/19 11:24:50;;;;;;;;;;;;;;;26.69;25.36;100487.47;5079459;28;1910;-34
2021/04/19 11:27:20;;;;;;;;;;;;;;;26.76;25.08;100480.28;5078393;28;815;-32
2021/04/19 11:29:46;;;;;;;;;;;;;;;26.78;25.23;100482.81;5079496;28;799;-32
2021/04/19 11:32:25;;;;;;;;;;;;;;;26.81;25.22;100478.91;5078909;28;962;-34
2021/04/19 11:34:51;;;;;;;;;;;;;;;26.81;25.32;100477.03;5078988;28;1567;-38
2021/04/19 11:37:38;;;;;;;;;;;;;;;26.83;25.28;100458.78;5079526;28;831;-33
2021/04/19 11:40:06;;;;;;;;;;;;;;;26.73;25.60;100448.28;5078818;28;817;-34
2021/04/19 11:42:33;;;;;;;;;;;;;;;26.72;25.81;100445.78;5078727;28;853;-34
2021/04/19 11:44:59;;;;;;;;;;;;;;;26.81;25.69;100450.03;5078529;28;1969;-32
2021/04/19 11:47:24;;;;;;;;;;;;;;;26.82;25.62;100446.34;5095092;28;1574;-36
2021/04/19 11:49:50;;;;;;;;;;;;;;;26.81;25.45;100441.13;5099243;28;807;-29
2021/04/19 11:52:16;;;;;;;;;;;;;;;26.76;25.69;100428.19;5098152;28;835;-29
2021/04/19 11:54:41;;;;;;;;;;;;;;;26.89;25.70;100422.13;5098791;28;771;-30
2021/04/19 11:57:06;;;;;;;;;;;;;;;26.88;25.86;100417.75;5097118;28;912;-35
2021/04/19 11:59:31;;;;;;;;;;;;;;;26.90;25.61;100415.69;5078177;28;832;-36
2021/04/19 12:01:57;;;;;;;;;;;;;;;26.98;25.44;100417.44;5077794;28;831;-32
2021/04/19 12:04:22;;;;;;;;;;;;;;;26.97;25.45;100411.22;5078498;28;852;-31
2021/04/19 12:06:47;;;;;;;;;;;;;;;27.09;25.60;100411.56;5078479;28;1910;-36
2021/04/19 12:09:13;;;;;;;;;;;;;;;27.21;25.30;100400.28;5078658;28;813;-31
2021/04/19 12:11:38;;;;;;;;;;;;;;;27.10;25.35;100399.75;5078089;28;1146;-33
2021/04/19 12:14:03;;;;;;;;;;;;;;;27.05;25.44;100402.19;5078658;28;810;-34
2021/04/19 12:16:29;;;;;;;;;;;;;;;26.94;25.53;100391.88;5078232;28;1186;-33
2021/04/19 12:18:54;;;;;;;;;;;;;;;27.02;25.68;100397.19;5078257;28;858;-35
2021/04/19 12:21:19;;;;;;;;;;;;;;;27.08;25.60;100396.41;5078335;28;887;-37
2021/04/19 12:23:45;;;;;;;;;;;;;;;27.10;25.40;100380.84;5078005;28;831;-35
2021/04/19 12:26:10;;;;;;;;;;;;;;;27.29;25.37;100361.50;5077863;28;1909;-34
2021/04/19 12:28:35;;;;;;;;;;;;;;;27.21;25.46;100371.41;5077080;28;816;-34
2021/04/19 12:31:01;;;;;;;;;;;;;;;27.18;25.58;100384.44;5077807;28;811;-33
2021/04/19 12:33:26;;;;;;;;;;;;;;;27.10;25.60;100398.91;5077630;28;1547;-32
2021/04/19 12:35:51;;;;;;;;;;;;;;;27.12;25.63;100407.66;5078191;28;779;-38
2021/04/19 12:38:17;;;;;;;;;;;;;;;26.98;25.63;100414.72;5078032;28;751;-32
2021/04/19 12:40:42;;;;;;;;;;;;;;;27.13;25.49;100417.41;5077669;28;815;-32
2021/04/19 12:43:08;;;;;;;;;;;;;;;27.08;25.83;100415.31;5077550;28;928;-30
2021/04/19 12:45:34;;;;;;;;;;;;;;;27.21;25.52;100422.69;5079585;28;1971;-33
2021/04/19 12:48:00;;;;;;;;;;;;;;;27.07;25.81;100429.84;5096425;28;946;-34
2021/04/19 12:50:26;;;;;;;;;;;;;;;26.99;25.85;100425.34;5098123;28;760;-34
2021/04/19 12:52:51;;;;;;;;;;;;;;;26.95;25.72;100421.38;5097842;28;735;-33
2021/04/19 12:55:16;;;;;;;;;;;;;;;26.92;25.99;100423.59;5097424;28;895;-30